Aviation Digital Data Service (ADDS)

Output produced by METARs form (0345 UTC 07 June 2020)
found at http://aviationweather.gov/metar/data/
 
METAR text: KPGV 070335Z AUTO 24004KT 10SM CLR 25/22 A2991 RMK AO2
Conditions at: KPGV (PITT GREENVILLE , NC, US) observed 0335 UTC 07 June 2020
Temperature: 25.0°C (77°F)
Dewpoint: 22.0°C (72°F) [RH = 83%]
Pressure (altimeter): 29.91 inches Hg (1013.0 mb)
Winds: from the WSW (240 degrees) at 5 MPH (4 knots; 2.1 m/s)
Visibility: 10 or more miles (16+ km)
Ceiling: at least 12,000 feet AGL
Clouds: sky clear below 12,000 feet AGL
Weather: automated observation with no human augmentation;
there may or may not be significant weather present at this time

METAR text: KPGV 070315Z AUTO 23004KT 10SM CLR 23/22 A2991 RMK AO2
Conditions at: KPGV (PITT GREENVILLE , NC, US) observed 0315 UTC 07 June 2020
Temperature: 23.0°C (73°F)
Dewpoint: 22.0°C (72°F) [RH = 94%]
Pressure (altimeter): 29.91 inches Hg (1013.0 mb)
Winds: from the SW (230 degrees) at 5 MPH (4 knots; 2.1 m/s)
Visibility: 10 or more miles (16+ km)
Ceiling: at least 12,000 feet AGL
Clouds: sky clear below 12,000 feet AGL
Weather: automated observation with no human augmentation;
there may or may not be significant weather present at this time

METAR text: KPGV 070255Z AUTO 24004KT 10SM CLR 25/22 A2991 RMK AO2
Conditions at: KPGV (PITT GREENVILLE , NC, US) observed 0255 UTC 07 June 2020
Temperature: 25.0°C (77°F)
Dewpoint: 22.0°C (72°F) [RH = 83%]
Pressure (altimeter): 29.91 inches Hg (1013.0 mb)
Winds: from the WSW (240 degrees) at 5 MPH (4 knots; 2.1 m/s)
Visibility: 10 or more miles (16+ km)
Ceiling: at least 12,000 feet AGL
Clouds: sky clear below 12,000 feet AGL
Weather: automated observation with no human augmentation;
there may or may not be significant weather present at this time

METAR text: KPGV 070235Z AUTO 24005KT 10SM CLR 25/22 A2991 RMK AO2
Conditions at: KPGV (PITT GREENVILLE , NC, US) observed 0235 UTC 07 June 2020
Temperature: 25.0°C (77°F)
Dewpoint: 22.0°C (72°F) [RH = 83%]
Pressure (altimeter): 29.91 inches Hg (1013.0 mb)
Winds: from the WSW (240 degrees) at 6 MPH (5 knots; 2.6 m/s)
Visibility: 10 or more miles (16+ km)
Ceiling: at least 12,000 feet AGL
Clouds: sky clear below 12,000 feet AGL
Weather: automated observation with no human augmentation;
there may or may not be significant weather present at this time

METAR text: KPGV 070215Z AUTO 23003KT 10SM CLR 25/22 A2990 RMK AO2
Conditions at: KPGV (PITT GREENVILLE , NC, US) observed 0215 UTC 07 June 2020
Temperature: 25.0°C (77°F)
Dewpoint: 22.0°C (72°F) [RH = 83%]
Pressure (altimeter): 29.90 inches Hg (1012.6 mb)
Winds: from the SW (230 degrees) at 3 MPH (3 knots; 1.5 m/s)
Visibility: 10 or more miles (16+ km)
Ceiling: at least 12,000 feet AGL
Clouds: sky clear below 12,000 feet AGL
Weather: automated observation with no human augmentation;
there may or may not be significant weather present at this time

METAR text: KPGV 070155Z AUTO 24003KT 10SM CLR 25/22 A2991 RMK AO2
Conditions at: KPGV (PITT GREENVILLE , NC, US) observed 0155 UTC 07 June 2020
Temperature: 25.0°C (77°F)
Dewpoint: 22.0°C (72°F) [RH = 83%]
Pressure (altimeter): 29.91 inches Hg (1013.0 mb)
Winds: from the WSW (240 degrees) at 3 MPH (3 knots; 1.5 m/s)
Visibility: 10 or more miles (16+ km)
Ceiling: at least 12,000 feet AGL
Clouds: sky clear below 12,000 feet AGL
Weather: automated observation with no human augmentation;
there may or may not be significant weather present at this time

Forecast for: KPGV (PITT GREENVILLE , NC, US)
Text: KPGV 062320Z 0700/0724 24004KT P6SM VCTS SCT060CB BKN180
Forecast period: 0000 to 1000 UTC 07 June 2020
Forecast type: FROM: standard forecast or significant change
Winds: from the WSW (240 degrees) at 5 MPH (4 knots; 2.1 m/s)
Visibility: 6 or more miles 10+ km)
Ceiling: 18000 feet AGL
Clouds: scattered clouds at 6000 feet AGL
broken clouds at 18000 feet AGL
Weather: VCTS  (thunderstorm in vicinity)
Text: FM071000 34005KT P6SM SCT050 AMD LTD TO CLD VIS AND WIND
Forecast period: 1000 UTC 07 June 2020 to 0000 UTC 08 June 2020
Forecast type: FROM: standard forecast or significant change
Winds: from the NNW (340 degrees) at 6 MPH (5 knots; 2.6 m/s)
Visibility: 6 or more miles 10+ km)
Ceiling: at least 12,000 feet AGL
Clouds: scattered clouds at 5000 feet AGL
Weather: no significant weather forecast for this period